Flight Track Log - Related Links

Times and Time Zones

All times are in EDT time to prevent confusion due to time zone crossing. See the CES2325 flight status page for this flight to view local times or setup timezone preferences in your user account.

Time Position Orientation Groundspeed Altitude Reporting Facility
EDT Latitude Longitude Course Direction KTS MPH feet Rate Location/Type
Fri 07:50:00 PM 35.8006 104.6608 110° East  Level Estimated
Fri 07:51:00 PM 35.7685 104.7647 111° Southeast  Level Estimated
Fri 07:52:00 PM 35.7362 104.8685 111° Southeast  Level Estimated
Fri 07:53:00 PM 35.7039 104.9723 111° Southeast  Level Estimated
Fri 07:54:00 PM 35.6715 105.0759 111° Southeast  Level Estimated
Fri 07:55:00 PM 35.6390 105.1795 111° Southeast  Level Estimated
Fri 07:56:00 PM 35.6064 105.2830 111° Southeast  Level Estimated
Fri 07:57:00 PM 35.5738 105.3864 111° Southeast  Level Estimated
Fri 07:58:00 PM 35.5410 105.4897 111° Southeast  Level Estimated
Fri 07:59:00 PM 35.5082 105.5930 111° Southeast  Level Estimated
Fri 08:00:00 PM 35.4752 105.6961 111° Southeast  Level Estimated
Fri 08:01:00 PM 35.4422 105.7992 111° Southeast  Level Estimated
Fri 08:02:00 PM 35.4091 105.9022 112° Southeast  Level Estimated
Fri 08:03:00 PM 35.3759 106.0051 112° Southeast  Level Estimated
Fri 08:04:00 PM 35.3426 106.1079 112° Southeast  Level Estimated
Fri 08:05:00 PM 35.3092 106.2106 112° Southeast  Level Estimated
Fri 08:06:00 PM 35.2758 106.3133 112° Southeast  Level Estimated
Fri 08:07:00 PM 35.2422 106.4158 112° Southeast  Level Estimated
Fri 08:08:00 PM 35.2086 106.5183 112° Southeast  Level Estimated
Fri 08:09:00 PM 35.1720 106.6296 112° Southeast  Level Estimated
Fri 08:10:00 PM 35.1352 106.7408 112° Southeast  Level Estimated
Fri 08:11:00 PM 35.0984 106.8519 112° Southeast  Level Estimated
Fri 08:12:00 PM 35.0614 106.9629 112° Southeast  Level Estimated
Fri 08:13:00 PM 35.0243 107.0738 112° Southeast  Level Estimated
Fri 08:14:00 PM 34.9872 107.1846 112° Southeast  Level Estimated
Fri 08:15:00 PM 34.9499 107.2952 112° Southeast  Level Estimated
Fri 08:16:00 PM 34.9126 107.4058 112° Southeast  Level Estimated
Fri 08:17:00 PM 34.8751 107.5163 112° Southeast  Level Estimated
Fri 08:18:00 PM 34.8375 107.6267 112° Southeast  Level Estimated
Fri 08:19:00 PM 34.7999 107.7370 113° Southeast  Level Estimated
Fri 08:20:00 PM 34.7621 107.8472 113° Southeast  Level Estimated
Fri 08:21:00 PM 34.7243 107.9573 113° Southeast  Level Estimated
Fri 08:22:00 PM 34.6863 108.0673 113° Southeast  Level Estimated
Fri 08:23:00 PM 34.6482 108.1771 113° Southeast  Level Estimated
Fri 08:24:00 PM 34.6101 108.2869 113° Southeast  Level Estimated
Fri 08:25:00 PM 34.5718 108.3966 113° Southeast  Level Estimated
Fri 08:26:00 PM 34.5335 108.5062 113° Southeast  Level Estimated
Fri 08:27:00 PM 34.4950 108.6157 113° Southeast  Level Estimated
Fri 08:28:00 PM 34.4565 108.7250 113° Southeast  Level Estimated
Fri 08:29:00 PM 34.4471 108.7516 113° Southeast  Level Estimated
Fri 08:30:00 PM 34.4471 108.7516 121° Southeast  Level Estimated
Fri 08:31:00 PM 34.4471 108.7516 121° Southeast  Level Estimated
Fri 08:32:00 PM 34.4471 108.7516 121° Southeast  Level Estimated
Fri 08:33:00 PM 34.4471 108.7516 121° Southeast  Level Estimated
Fri 08:34:00 PM 34.4471 108.7516 121° Southeast  Level Estimated
Fri 08:35:00 PM 34.4471 108.7516 121° Southeast  Level Estimated
Fri 08:36:00 PM 34.4471 108.7516 121° Southeast  Level Estimated
Fri 08:37:00 PM 34.4471 108.7516 121° Southeast  Level Estimated
Fri 08:38:00 PM 34.4471 108.7516 121° Southeast  Level Estimated
Fri 08:39:00 PM 34.4471 108.7516 121° Southeast  Level Estimated

Login

Don't have an account? Register now (free) for customized features, flight alerts, and more!